Wayne, West Virginia
Current Conditions -  °F | °C
As of 7:51 PM on Friday 19 Dec 2014 (Local Time) from KHTS Reporting Station
Overcast Overcast  
Wind Chill: 30°   Ceiling: 2500
Heat Index: 30°   Visibility: 10mi
Dew Point: 22°   Wind: 3mph
Humidity: 72%   Direction: 50°NE
Pressure: 30.28"   Gusts: NA
Location:  38.22°N, 82.44°W
Report Text: KHTS 200051Z 05003KT 10SM OVC025 M01/M06 A3028 RMK AO2 SLP263 T10111056
Loading
Personal Weather Stations






























Interactive Weather Map New forecast layout! Learn more

10-Day Weather Forecast

Advertisements
Track Severe Weather on mobile